sensor_id;sensor_type;location;lat;lon;timestamp;pressure;altitude;pressure_sealevel;temperature;humidity
73341;BME280;61578;52.002;5.468;2024-01-11T00:00:23;103231.66;;;-1.85;55.80
73341;BME280;61578;52.002;5.468;2024-01-11T00:00:53;103232.53;;;-1.83;55.93
73341;BME280;61578;52.002;5.468;2024-01-11T00:01:24;103238.63;;;-1.82;55.47
73341;BME280;61578;52.002;5.468;2024-01-11T00:01:55;103240.41;;;-1.81;55.60
73341;BME280;61578;52.002;5.468;2024-01-11T00:02:26;103243.00;;;-1.81;55.59
73341;BME280;61578;52.002;5.468;2024-01-11T00:02:57;103228.97;;;-1.88;55.58
73341;BME280;61578;52.002;5.468;2024-01-11T00:03:27;103239.50;;;-1.82;55.67
73341;BME280;61578;52.002;5.468;2024-01-11T00:03:58;103230.81;;;-1.82;55.39
73341;BME280;61578;52.002;5.468;2024-01-11T00:04:29;103235.13;;;-1.84;55.36
73341;BME280;61578;52.002;5.468;2024-01-11T00:05:00;103231.69;;;-1.83;55.83
73341;BME280;61578;52.002;5.468;2024-01-11T00:05:30;103230.81;;;-1.84;55.48
73341;BME280;61578;52.002;5.468;2024-01-11T00:06:01;103245.75;;;-1.77;55.32
73341;BME280;61578;52.002;5.468;2024-01-11T00:06:32;103237.94;;;-1.77;55.18
73341;BME280;61578;52.002;5.468;2024-01-11T00:07:03;103231.84;;;-1.77;55.34
73341;BME280;61578;52.002;5.468;2024-01-11T00:07:34;103238.91;;;-1.73;55.71
73341;BME280;61578;52.002;5.468;2024-01-11T00:08:05;103229.28;;;-1.76;55.52
73341;BME280;61578;52.002;5.468;2024-01-11T00:08:36;103218.81;;;-1.77;55.38
73341;BME280;61578;52.002;5.468;2024-01-11T00:09:07;103225.78;;;-1.76;55.48
73341;BME280;61578;52.002;5.468;2024-01-11T00:09:46;103211.81;;;-1.80;55.04
73341;BME280;61578;52.002;5.468;2024-01-11T00:10:17;103233.03;;;-1.65;55.21
73341;BME280;61578;52.002;5.468;2024-01-11T00:10:48;103236.50;;;-1.64;55.17
73341;BME280;61578;52.002;5.468;2024-01-11T00:11:18;103243.44;;;-1.65;55.07
73341;BME280;61578;52.002;5.468;2024-01-11T00:11:49;103231.25;;;-1.66;55.05
73341;BME280;61578;52.002;5.468;2024-01-11T00:12:20;103240.00;;;-1.64;55.21
73341;BME280;61578;52.002;5.468;2024-01-11T00:12:51;103233.91;;;-1.63;55.01
73341;BME280;61578;52.002;5.468;2024-01-11T00:13:21;103233.13;;;-1.60;55.01
73341;BME280;61578;52.002;5.468;2024-01-11T00:13:52;103235.69;;;-1.63;55.12
73341;BME280;61578;52.002;5.468;2024-01-11T00:14:23;103240.00;;;-1.64;55.54
73341;BME280;61578;52.002;5.468;2024-01-11T00:14:54;103241.72;;;-1.64;55.50
73341;BME280;61578;52.002;5.468;2024-01-11T00:15:25;103230.34;;;-1.68;55.51
73341;BME280;61578;52.002;5.468;2024-01-11T00:15:55;103239.84;;;-1.70;55.60
73341;BME280;61578;52.002;5.468;2024-01-11T00:16:26;103224.81;;;-1.80;55.44
73341;BME280;61578;52.002;5.468;2024-01-11T00:16:57;103232.75;;;-1.75;55.21
73341;BME280;61578;52.002;5.468;2024-01-11T00:17:28;103240.63;;;-1.72;55.33
73341;BME280;61578;52.002;5.468;2024-01-11T00:17:58;103203.66;;;-1.94;55.43
73341;BME280;61578;52.002;5.468;2024-01-11T00:18:29;103239.84;;;-1.70;55.41
73341;BME280;61578;52.002;5.468;2024-01-11T00:19:00;103240.75;;;-1.68;54.99
73341;BME280;61578;52.002;5.468;2024-01-11T00:19:31;103233.69;;;-1.72;55.56
73341;BME280;61578;52.002;5.468;2024-01-11T00:20:02;103229.22;;;-1.77;55.67
73341;BME280;61578;52.002;5.468;2024-01-11T00:20:33;103233.69;;;-1.73;55.85
73341;BME280;61578;52.002;5.468;2024-01-11T00:21:05;103247.59;;;-1.71;55.51
73341;BME280;61578;52.002;5.468;2024-01-11T00:21:35;103236.19;;;-1.76;55.49
73341;BME280;61578;52.002;5.468;2024-01-11T00:22:06;103244.94;;;-1.73;55.42
73341;BME280;61578;52.002;5.468;2024-01-11T00:22:37;103239.88;;;-1.68;55.22
73341;BME280;61578;52.002;5.468;2024-01-11T00:23:08;103245.03;;;-1.70;55.64
73341;BME280;61578;52.002;5.468;2024-01-11T00:23:39;103233.75;;;-1.70;55.25
73341;BME280;61578;52.002;5.468;2024-01-11T00:24:09;103233.75;;;-1.70;55.15
73341;BME280;61578;52.002;5.468;2024-01-11T00:24:40;103238.94;;;-1.70;55.48
73341;BME280;61578;52.002;5.468;2024-01-11T00:25:11;103239.78;;;-1.71;55.47
73341;BME280;61578;52.002;5.468;2024-01-11T00:25:42;103238.09;;;-1.69;55.63
73341;BME280;61578;52.002;5.468;2024-01-11T00:26:13;103243.41;;;-1.66;55.27
73341;BME280;61578;52.002;5.468;2024-01-11T00:26:43;103238.22;;;-1.65;55.36
73341;BME280;61578;52.002;5.468;2024-01-11T00:27:15;103232.09;;;-1.67;54.84
73341;BME280;61578;52.002;5.468;2024-01-11T00:27:46;103232.84;;;-1.71;55.32
73341;BME280;61578;52.002;5.468;2024-01-11T00:28:16;103233.75;;;-1.70;55.42
73341;BME280;61578;52.002;5.468;2024-01-11T00:28:47;103231.09;;;-1.72;55.06
73341;BME280;61578;52.002;5.468;2024-01-11T00:29:18;103238.09;;;-1.69;55.63
73341;BME280;61578;52.002;5.468;2024-01-11T00:29:49;103241.50;;;-1.72;55.48
73341;BME280;61578;52.002;5.468;2024-01-11T00:30:19;103238.91;;;-1.72;55.55
73341;BME280;61578;52.002;5.468;2024-01-11T00:30:50;103234.53;;;-1.74;55.67
73341;BME280;61578;52.002;5.468;2024-01-11T00:31:21;103218.63;;;-1.85;55.48
73341;BME280;61578;52.002;5.468;2024-01-11T00:31:51;103230.13;;;-1.77;55.56
73341;BME280;61578;52.002;5.468;2024-01-11T00:32:22;103235.28;;;-1.78;55.18
73341;BME280;61578;52.002;5.468;2024-01-11T00:32:53;103237.09;;;-1.76;55.65
73341;BME280;61578;52.002;5.468;2024-01-11T00:33:25;103234.44;;;-1.77;55.95
73341;BME280;61578;52.002;5.468;2024-01-11T00:33:55;103235.28;;;-1.78;55.76
73341;BME280;61578;52.002;5.468;2024-01-11T00:34:26;103237.84;;;-1.80;55.63
73341;BME280;61578;52.002;5.468;2024-01-11T00:34:57;103243.94;;;-1.79;55.64
73341;BME280;61578;52.002;5.468;2024-01-11T00:35:28;103237.78;;;-1.81;55.64
73341;BME280;61578;52.002;5.468;2024-01-11T00:35:58;103226.34;;;-1.88;56.06
73341;BME280;61578;52.002;5.468;2024-01-11T00:36:30;103236.91;;;-1.83;56.01
73341;BME280;61578;52.002;5.468;2024-01-11T00:37:01;103241.19;;;-1.86;56.11
73341;BME280;61578;52.002;5.468;2024-01-11T00:37:32;103245.50;;;-1.86;55.83
73341;BME280;61578;52.002;5.468;2024-01-11T00:38:03;103241.13;;;-1.87;56.17
73341;BME280;61578;52.002;5.468;2024-01-11T00:38:34;103237.56;;;-1.91;56.36
73341;BME280;61578;52.002;5.468;2024-01-11T00:39:04;103220.78;;;-2.02;56.41
73341;BME280;61578;52.002;5.468;2024-01-11T00:39:35;103241.00;;;-1.92;56.72
73341;BME280;61578;52.002;5.468;2024-01-11T00:40:06;103234.91;;;-1.94;56.95
73341;BME280;61578;52.002;5.468;2024-01-11T00:40:38;103235.75;;;-1.93;56.64
73341;BME280;61578;52.002;5.468;2024-01-11T00:41:08;103239.19;;;-1.96;56.56
73341;BME280;61578;52.002;5.468;2024-01-11T00:41:40;103232.13;;;-2.00;56.32
73341;BME280;61578;52.002;5.468;2024-01-11T00:42:10;103232.16;;;-1.98;56.57
73341;BME280;61578;52.002;5.468;2024-01-11T00:42:41;103229.59;;;-1.97;56.57
73341;BME280;61578;52.002;5.468;2024-01-11T00:43:12;103244.41;;;-1.96;56.24
73341;BME280;61578;52.002;5.468;2024-01-11T00:43:43;103240.81;;;-1.99;56.54
73341;BME280;61578;52.002;5.468;2024-01-11T00:44:14;103236.50;;;-1.99;56.63
73341;BME280;61578;52.002;5.468;2024-01-11T00:44:44;103239.06;;;-2.00;56.69
73341;BME280;61578;52.002;5.468;2024-01-11T00:45:20;103235.53;;;-2.02;56.79
73341;BME280;61578;52.002;5.468;2024-01-11T00:45:50;103242.44;;;-2.04;56.82
73341;BME280;61578;52.002;5.468;2024-01-11T00:46:21;103241.59;;;-2.02;56.70
73341;BME280;61578;52.002;5.468;2024-01-11T00:46:52;103243.31;;;-2.04;56.89
73341;BME280;61578;52.002;5.468;2024-01-11T00:47:23;103233.69;;;-2.06;56.90
73341;BME280;61578;52.002;5.468;2024-01-11T00:47:53;103245.84;;;-2.07;56.88
73341;BME280;61578;52.002;5.468;2024-01-11T00:48:24;103242.34;;;-2.07;57.05
73341;BME280;61578;52.002;5.468;2024-01-11T00:48:55;103248.38;;;-2.08;57.36
73341;BME280;61578;52.002;5.468;2024-01-11T00:49:27;103243.13;;;-2.10;57.44
73341;BME280;61578;52.002;5.468;2024-01-11T00:49:58;103239.75;;;-2.07;57.35
73341;BME280;61578;52.002;5.468;2024-01-11T00:50:28;103242.34;;;-2.07;57.20
73341;BME280;61578;52.002;5.468;2024-01-11T00:50:59;103237.94;;;-2.10;57.02
73341;BME280;61578;52.002;5.468;2024-01-11T00:51:30;103215.03;;;-2.23;57.13
73341;BME280;61578;52.002;5.468;2024-01-11T00:52:01;103243.97;;;-2.11;57.36
73341;BME280;61578;52.002;5.468;2024-01-11T00:52:31;103238.72;;;-2.12;57.53
73341;BME280;61578;52.002;5.468;2024-01-11T00:53:02;103240.50;;;-2.11;57.09
73341;BME280;61578;52.002;5.468;2024-01-11T00:53:33;103230.84;;;-2.15;57.43
73341;BME280;61578;52.002;5.468;2024-01-11T00:54:04;103243.03;;;-2.14;57.10
73341;BME280;61578;52.002;5.468;2024-01-11T00:54:35;103237.84;;;-2.14;57.34
73341;BME280;61578;52.002;5.468;2024-01-11T00:55:06;103236.09;;;-2.14;57.32
73341;BME280;61578;52.002;5.468;2024-01-11T00:55:37;103230.91;;;-2.14;57.53
73341;BME280;61578;52.002;5.468;2024-01-11T00:56:18;103236.97;;;-2.13;57.10
73341;BME280;61578;52.002;5.468;2024-01-11T00:56:50;103237.00;;;-2.12;57.54
73341;BME280;61578;52.002;5.468;2024-01-11T00:57:21;103238.72;;;-2.12;57.62
73341;BME280;61578;52.002;5.468;2024-01-11T00:57:51;103232.63;;;-2.14;57.48
73341;BME280;61578;52.002;5.468;2024-01-11T00:58:22;103241.22;;;-2.17;57.40
73341;BME280;61578;52.002;5.468;2024-01-11T00:58:53;103236.91;;;-2.16;57.63
73341;BME280;61578;52.002;5.468;2024-01-11T00:59:24;103241.28;;;-2.15;57.49
73341;BME280;61578;52.002;5.468;2024-01-11T00:59:55;103238.63;;;-2.17;57.23
73341;BME280;61578;52.002;5.468;2024-01-11T01:00:25;103236.84;;;-2.18;57.46
73341;BME280;61578;52.002;5.468;2024-01-11T01:00:56;103239.41;;;-2.19;57.41
73341;BME280;61578;52.002;5.468;2024-01-11T01:01:27;103231.56;;;-2.21;57.71
73341;BME280;61578;52.002;5.468;2024-01-11T01:01:58;103238.47;;;-2.22;57.83
73341;BME280;61578;52.002;5.468;2024-01-11T01:02:28;103208.63;;;-2.36;57.41
73341;BME280;61578;52.002;5.468;2024-01-11T01:02:59;103237.69;;;-2.19;57.35
73341;BME280;61578;52.002;5.468;2024-01-11T01:03:30;103235.97;;;-2.18;57.61
73341;BME280;61578;52.002;5.468;2024-01-11T01:04:01;103234.25;;;-2.18;57.45
73341;BME280;61578;52.002;5.468;2024-01-11T01:04:31;103237.78;;;-2.16;57.57
73341;BME280;61578;52.002;5.468;2024-01-11T01:05:03;103233.47;;;-2.15;57.16
73341;BME280;61578;52.002;5.468;2024-01-11T01:05:34;103237.84;;;-2.14;57.62
73341;BME280;61578;52.002;5.468;2024-01-11T01:06:04;103235.19;;;-2.16;57.31
73341;BME280;61578;52.002;5.468;2024-01-11T01:06:35;103230.91;;;-2.14;57.36
73341;BME280;61578;52.002;5.468;2024-01-11T01:07:07;103240.44;;;-2.14;57.44
73341;BME280;61578;52.002;5.468;2024-01-11T01:07:38;103232.56;;;-2.16;57.56
73341;BME280;61578;52.002;5.468;2024-01-11T01:08:08;103223.72;;;-2.23;57.28
73341;BME280;61578;52.002;5.468;2024-01-11T01:08:39;103244.75;;;-2.15;57.29
73341;BME280;61578;52.002;5.468;2024-01-11T01:09:10;103241.31;;;-2.14;57.63
73341;BME280;61578;52.002;5.468;2024-01-11T01:09:41;103244.75;;;-2.15;57.55
73341;BME280;61578;52.002;5.468;2024-01-11T01:10:12;103249.97;;;-2.15;57.24
73341;BME280;61578;52.002;5.468;2024-01-11T01:10:42;103248.25;;;-2.14;57.19
73341;BME280;61578;52.002;5.468;2024-01-11T01:11:13;103246.53;;;-2.12;57.05
73341;BME280;61578;52.002;5.468;2024-01-11T01:11:44;103249.13;;;-2.12;57.32
73341;BME280;61578;52.002;5.468;2024-01-11T01:12:15;103246.53;;;-2.12;57.30
73341;BME280;61578;52.002;5.468;2024-01-11T01:12:45;103207.91;;;-2.30;57.41
73341;BME280;61578;52.002;5.468;2024-01-11T01:13:16;103250.84;;;-2.13;57.38
73341;BME280;61578;52.002;5.468;2024-01-11T01:13:47;103244.75;;;-2.15;57.18
73341;BME280;61578;52.002;5.468;2024-01-11T01:14:18;103244.75;;;-2.15;57.59
73341;BME280;61578;52.002;5.468;2024-01-11T01:14:48;103248.16;;;-2.17;57.42
73341;BME280;61578;52.002;5.468;2024-01-11T01:15:19;103247.38;;;-2.13;57.30
73341;BME280;61578;52.002;5.468;2024-01-11T01:15:50;103243.03;;;-2.13;57.15
73341;BME280;61578;52.002;5.468;2024-01-11T01:16:20;103246.53;;;-2.14;57.19
73341;BME280;61578;52.002;5.468;2024-01-11T01:16:51;103243.94;;;-2.12;57.20
73341;BME280;61578;52.002;5.468;2024-01-11T01:17:22;103245.66;;;-2.13;57.57
73341;BME280;61578;52.002;5.468;2024-01-11T01:17:53;103246.53;;;-2.14;57.44
73341;BME280;61578;52.002;5.468;2024-01-11T01:18:24;103243.88;;;-2.15;57.59
73341;BME280;61578;52.002;5.468;2024-01-11T01:18:54;103240.38;;;-2.16;57.47
73341;BME280;61578;52.002;5.468;2024-01-11T01:19:25;103244.81;;;-2.12;57.47
73341;BME280;61578;52.002;5.468;2024-01-11T01:19:56;103248.25;;;-2.13;57.53
73341;BME280;61578;52.002;5.468;2024-01-11T01:20:27;103239.53;;;-2.15;57.61
73341;BME280;61578;52.002;5.468;2024-01-11T01:20:58;103238.63;;;-2.17;57.71
73341;BME280;61578;52.002;5.468;2024-01-11T01:21:29;103246.53;;;-2.14;57.74
73341;BME280;61578;52.002;5.468;2024-01-11T01:22:00;103232.34;;;-2.25;57.88
73341;BME280;61578;52.002;5.468;2024-01-11T01:22:30;103242.84;;;-2.20;57.61
73341;BME280;61578;52.002;5.468;2024-01-11T01:23:01;103222.53;;;-2.35;57.78
73341;BME280;61578;52.002;5.468;2024-01-11T01:23:32;103247.25;;;-2.18;57.71
73341;BME280;61578;52.002;5.468;2024-01-11T01:24:03;103248.16;;;-2.17;57.70
73341;BME280;61578;52.002;5.468;2024-01-11T01:24:34;103254.22;;;-2.17;57.37
73341;BME280;61578;52.002;5.468;2024-01-11T01:25:05;103259.34;;;-2.20;57.41
73341;BME280;61578;52.002;5.468;2024-01-11T01:25:36;103246.28;;;-2.22;57.47
73341;BME280;61578;52.002;5.468;2024-01-11T01:26:07;103254.19;;;-2.18;57.90
73341;BME280;61578;52.002;5.468;2024-01-11T01:26:37;103250.66;;;-2.20;57.65
73341;BME280;61578;52.002;5.468;2024-01-11T01:27:08;103251.53;;;-2.20;57.74
73341;BME280;61578;52.002;5.468;2024-01-11T01:27:39;103248.09;;;-2.19;57.46
73341;BME280;61578;52.002;5.468;2024-01-11T01:28:10;103257.63;;;-2.19;57.54
73341;BME280;61578;52.002;5.468;2024-01-11T01:28:41;103256.75;;;-2.20;57.83
73341;BME280;61578;52.002;5.468;2024-01-11T01:29:11;103256.66;;;-2.23;57.63
73341;BME280;61578;52.002;5.468;2024-01-11T01:29:42;103255.75;;;-2.24;57.64
73341;BME280;61578;52.002;5.468;2024-01-11T01:30:13;103253.16;;;-2.24;57.55
73341;BME280;61578;52.002;5.468;2024-01-11T01:30:44;103254.91;;;-2.24;58.12
73341;BME280;61578;52.002;5.468;2024-01-11T01:31:14;103253.91;;;-2.29;58.12
73341;BME280;61578;52.002;5.468;2024-01-11T01:31:47;103246.63;;;-2.41;57.83
73341;BME280;61578;52.002;5.468;2024-01-11T01:32:17;103270.34;;;-2.30;58.07
73341;BME280;61578;52.002;5.468;2024-01-11T01:32:48;103259.84;;;-2.33;58.25
73341;BME280;61578;52.002;5.468;2024-01-11T01:33:19;103254.63;;;-2.35;57.94
73341;BME280;61578;52.002;5.468;2024-01-11T01:33:49;103253.75;;;-2.35;58.24
73341;BME280;61578;52.002;5.468;2024-01-11T01:34:20;103249.38;;;-2.36;58.38
73341;BME280;61578;52.002;5.468;2024-01-11T01:34:51;103235.22;;;-2.46;57.94
73341;BME280;61578;52.002;5.468;2024-01-11T01:35:22;103248.50;;;-2.37;58.30
73341;BME280;61578;52.002;5.468;2024-01-11T01:35:52;103251.94;;;-2.38;58.35
73341;BME280;61578;52.002;5.468;2024-01-11T01:36:23;103253.59;;;-2.40;58.49
73341;BME280;61578;52.002;5.468;2024-01-11T01:36:54;103252.66;;;-2.42;58.09
73341;BME280;61578;52.002;5.468;2024-01-11T01:37:24;103250.06;;;-2.42;58.29
73341;BME280;61578;52.002;5.468;2024-01-11T01:37:56;103255.31;;;-2.40;58.43
73341;BME280;61578;52.002;5.468;2024-01-11T01:38:26;103261.41;;;-2.40;58.21
73341;BME280;61578;52.002;5.468;2024-01-11T01:38:57;103264.84;;;-2.41;58.51
73341;BME280;61578;52.002;5.468;2024-01-11T01:39:28;103255.22;;;-2.43;58.28
73341;BME280;61578;52.002;5.468;2024-01-11T01:39:58;103256.09;;;-2.44;58.16
73341;BME280;61578;52.002;5.468;2024-01-11T01:40:30;103266.41;;;-2.47;58.46
73341;BME280;61578;52.002;5.468;2024-01-11T01:41:02;103265.56;;;-2.46;58.83
73341;BME280;61578;52.002;5.468;2024-01-11T01:41:33;103262.88;;;-2.49;58.67
73341;BME280;61578;52.002;5.468;2024-01-11T01:42:04;103243.47;;;-2.61;58.73
73341;BME280;61578;52.002;5.468;2024-01-11T01:42:43;103269.72;;;-2.51;58.86
73341;BME280;61578;52.002;5.468;2024-01-11T01:43:14;103266.25;;;-2.52;58.43
73341;BME280;61578;52.002;5.468;2024-01-11T01:43:45;103263.66;;;-2.52;58.58
73341;BME280;61578;52.002;5.468;2024-01-11T01:44:16;103253.78;;;-2.64;58.98
73341;BME280;61578;52.002;5.468;2024-01-11T01:44:46;103267.03;;;-2.56;58.71
73341;BME280;61578;52.002;5.468;2024-01-11T01:45:17;103264.47;;;-2.54;58.73
73341;BME280;61578;52.002;5.468;2024-01-11T01:45:48;103267.84;;;-2.57;58.85
73341;BME280;61578;52.002;5.468;2024-01-11T01:46:23;103264.31;;;-2.59;59.17
73341;BME280;61578;52.002;5.468;2024-01-11T01:46:55;103267.75;;;-2.60;59.26
73341;BME280;61578;52.002;5.468;2024-01-11T01:47:27;103243.16;;;-2.71;59.19
73341;BME280;61578;52.002;5.468;2024-01-11T01:47:58;103259.81;;;-2.65;59.30
73341;BME280;61578;52.002;5.468;2024-01-11T01:48:29;103264.28;;;-2.61;59.12
73341;BME280;61578;52.002;5.468;2024-01-11T01:49:00;103266.75;;;-2.65;59.07
73341;BME280;61578;52.002;5.468;2024-01-11T01:49:32;103272.78;;;-2.66;58.92
73341;BME280;61578;52.002;5.468;2024-01-11T01:50:03;103270.19;;;-2.66;59.29
73341;BME280;61578;52.002;5.468;2024-01-11T01:50:35;103248.25;;;-2.76;59.37
73341;BME280;61578;52.002;5.468;2024-01-11T01:51:06;103268.47;;;-2.66;58.97
73341;BME280;61578;52.002;5.468;2024-01-11T01:51:38;103265.88;;;-2.66;59.52
73341;BME280;61578;52.002;5.468;2024-01-11T01:52:10;103270.19;;;-2.66;59.26
73341;BME280;61578;52.002;5.468;2024-01-11T01:52:44;103262.34;;;-2.68;59.41
73341;BME280;61578;52.002;5.468;2024-01-11T01:53:17;103270.09;;;-2.69;59.52
73341;BME280;61578;52.002;5.468;2024-01-11T01:53:53;103261.31;;;-2.73;59.37
73341;BME280;61578;52.002;5.468;2024-01-11T01:54:25;103266.47;;;-2.74;59.60
73341;BME280;61578;52.002;5.468;2024-01-11T01:54:58;103270.88;;;-2.72;59.52
73341;BME280;61578;52.002;5.468;2024-01-11T01:55:30;103266.56;;;-2.71;59.76
73341;BME280;61578;52.002;5.468;2024-01-11T01:56:02;103259.59;;;-2.72;59.67
73341;BME280;61578;52.002;5.468;2024-01-11T01:56:34;103268.31;;;-2.70;59.70
73341;BME280;61578;52.002;5.468;2024-01-11T01:57:08;103272.59;;;-2.72;59.86
73341;BME280;61578;52.002;5.468;2024-01-11T01:57:43;103276.97;;;-2.71;59.73
73341;BME280;61578;52.002;5.468;2024-01-11T01:58:17;103261.25;;;-2.74;59.43
73341;BME280;61578;52.002;5.468;2024-01-11T01:58:52;103273.47;;;-2.72;59.68
73341;BME280;61578;52.002;5.468;2024-01-11T01:59:26;103283.03;;;-2.71;59.65
73341;BME280;61578;52.002;5.468;2024-01-11T01:59:59;103272.59;;;-2.72;59.26
73341;BME280;61578;52.002;5.468;2024-01-11T02:00:31;103277.84;;;-2.71;59.32
73341;BME280;61578;52.002;5.468;2024-01-11T02:01:02;103280.34;;;-2.74;59.43
73341;BME280;61578;52.002;5.468;2024-01-11T02:01:34;103273.47;;;-2.72;59.26
73341;BME280;61578;52.002;5.468;2024-01-11T02:02:05;103282.94;;;-2.74;59.73
73341;BME280;61578;52.002;5.468;2024-01-11T02:02:50;103276.84;;;-2.76;59.94
73341;BME280;61578;52.002;5.468;2024-01-11T02:03:24;103282.00;;;-2.77;60.08
73341;BME280;61578;52.002;5.468;2024-01-11T02:03:58;103279.34;;;-2.79;60.22
73341;BME280;61578;52.002;5.468;2024-01-11T02:04:30;103285.47;;;-2.77;59.83
73341;BME280;61578;52.002;5.468;2024-01-11T02:05:01;103287.25;;;-2.76;59.85
73341;BME280;61578;52.002;5.468;2024-01-11T02:05:32;103285.47;;;-2.77;59.99
73341;BME280;61578;52.002;5.468;2024-01-11T02:06:05;103289.69;;;-2.80;60.26
73341;BME280;61578;52.002;5.468;2024-01-11T02:06:37;103285.31;;;-2.81;60.01
73341;BME280;61578;52.002;5.468;2024-01-11T02:07:08;103285.31;;;-2.81;60.41
73341;BME280;61578;52.002;5.468;2024-01-11T02:07:40;103284.38;;;-2.83;60.19
73341;BME280;61578;52.002;5.468;2024-01-11T02:08:15;103286.09;;;-2.84;60.05
73341;BME280;61578;52.002;5.468;2024-01-11T02:08:49;103277.25;;;-2.90;60.22
73341;BME280;61578;52.002;5.468;2024-01-11T02:09:24;103283.50;;;-2.84;60.10
73341;BME280;61578;52.002;5.468;2024-01-11T02:09:55;103281.88;;;-2.80;60.44
73341;BME280;61578;52.002;5.468;2024-01-11T02:10:27;103279.28;;;-2.80;60.48
73341;BME280;61578;52.002;5.468;2024-01-11T02:11:00;103279.34;;;-2.79;60.04
73341;BME280;61578;52.002;5.468;2024-01-11T02:11:31;103261.72;;;-2.89;60.20
73341;BME280;61578;52.002;5.468;2024-01-11T02:12:03;103269.59;;;-2.86;60.16
73341;BME280;61578;52.002;5.468;2024-01-11T02:12:36;103286.34;;;-2.76;60.31
73341;BME280;61578;52.002;5.468;2024-01-11T02:13:11;103284.72;;;-2.73;60.08
73341;BME280;61578;52.002;5.468;2024-01-11T02:13:43;103287.31;;;-2.73;60.06
73341;BME280;61578;52.002;5.468;2024-01-11T02:14:14;103283.00;;;-2.72;60.39
73341;BME280;61578;52.002;5.468;2024-01-11T02:14:45;103288.16;;;-2.74;60.23
73341;BME280;61578;52.002;5.468;2024-01-11T02:15:16;103286.34;;;-2.76;60.25
73341;BME280;61578;52.002;5.468;2024-01-11T02:15:47;103282.81;;;-2.78;60.49
73341;BME280;61578;52.002;5.468;2024-01-11T02:16:18;103266.13;;;-2.86;60.56
73341;BME280;61578;52.002;5.468;2024-01-11T02:16:49;103287.97;;;-2.80;60.07
73341;BME280;61578;52.002;5.468;2024-01-11T02:17:20;103282.66;;;-2.83;60.14
73341;BME280;61578;52.002;5.468;2024-01-11T02:17:51;103283.50;;;-2.84;60.61
73341;BME280;61578;52.002;5.468;2024-01-11T02:18:22;103277.34;;;-2.87;60.57
73341;BME280;61578;52.002;5.468;2024-01-11T02:18:53;103289.41;;;-2.89;60.75
73341;BME280;61578;52.002;5.468;2024-01-11T02:19:24;103281.63;;;-2.89;60.68
73341;BME280;61578;52.002;5.468;2024-01-11T02:19:54;103285.94;;;-2.90;60.62
73341;BME280;61578;52.002;5.468;2024-01-11T02:20:25;103291.97;;;-2.91;61.01
73341;BME280;61578;52.002;5.468;2024-01-11T02:20:56;103284.94;;;-2.93;60.39
73341;BME280;61578;52.002;5.468;2024-01-11T02:21:28;103284.94;;;-2.93;60.48
73341;BME280;61578;52.002;5.468;2024-01-11T02:22:12;103289.25;;;-2.94;61.04
73341;BME280;61578;52.002;5.468;2024-01-11T02:23:05;103277.09;;;-2.95;60.79
73341;BME280;61578;52.002;5.468;2024-01-11T02:24:00;103283.22;;;-2.93;60.92
73341;BME280;61578;52.002;5.468;2024-01-11T02:24:31;103281.41;;;-2.97;60.86
73341;BME280;61578;52.002;5.468;2024-01-11T02:25:02;103280.63;;;-2.93;60.78
73341;BME280;61578;52.002;5.468;2024-01-11T02:25:34;103278.88;;;-2.94;60.75
73341;BME280;61578;52.002;5.468;2024-01-11T02:26:04;103284.94;;;-2.93;60.82
73341;BME280;61578;52.002;5.468;2024-01-11T02:26:35;103279.69;;;-2.95;61.02
73341;BME280;61578;52.002;5.468;2024-01-11T02:27:06;103278.84;;;-2.95;61.15
73341;BME280;61578;52.002;5.468;2024-01-11T02:27:48;103280.63;;;-2.93;61.27
73341;BME280;61578;52.002;5.468;2024-01-11T02:28:20;103279.69;;;-2.95;61.07
73341;BME280;61578;52.002;5.468;2024-01-11T02:28:50;103285.00;;;-2.92;60.84
73341;BME280;61578;52.002;5.468;2024-01-11T02:29:21;103296.22;;;-2.93;61.07
73341;BME280;61578;52.002;5.468;2024-01-11T02:29:52;103283.22;;;-2.93;60.78
73341;BME280;61578;52.002;5.468;2024-01-11T02:30:22;103271.72;;;-3.01;60.89
73341;BME280;61578;52.002;5.468;2024-01-11T02:30:53;103275.38;;;-2.96;61.00
73341;BME280;61578;52.002;5.468;2024-01-11T02:31:25;103283.22;;;-2.93;61.31
73341;BME280;61578;52.002;5.468;2024-01-11T02:31:57;103284.03;;;-2.95;61.19
73341;BME280;61578;52.002;5.468;2024-01-11T02:32:30;103284.03;;;-2.95;61.16
73341;BME280;61578;52.002;5.468;2024-01-11T02:33:01;103285.81;;;-2.93;61.29
73341;BME280;61578;52.002;5.468;2024-01-11T02:33:33;103284.91;;;-2.95;61.19
73341;BME280;61578;52.002;5.468;2024-01-11T02:34:04;103283.88;;;-3.00;61.42
73341;BME280;61578;52.002;5.468;2024-01-11T02:34:35;103285.75;;;-2.96;61.07
73341;BME280;61578;52.002;5.468;2024-01-11T02:35:06;103288.34;;;-2.96;61.42
73341;BME280;61578;52.002;5.468;2024-01-11T02:35:38;103277.81;;;-3.01;61.62
73341;BME280;61578;52.002;5.468;2024-01-11T02:36:10;103273.28;;;-3.08;61.38
73341;BME280;61578;52.002;5.468;2024-01-11T02:36:41;103291.72;;;-2.99;61.61
73341;BME280;61578;52.002;5.468;2024-01-11T02:37:12;103279.69;;;-2.97;61.69
73341;BME280;61578;52.002;5.468;2024-01-11T02:37:44;103263.72;;;-3.09;61.32
73341;BME280;61578;52.002;5.468;2024-01-11T02:38:17;103284.91;;;-2.95;61.67
73341;BME280;61578;52.002;5.468;2024-01-11T02:38:48;103284.91;;;-2.95;61.76
73341;BME280;61578;52.002;5.468;2024-01-11T02:39:23;103283.09;;;-2.98;61.23
73341;BME280;61578;52.002;5.468;2024-01-11T02:39:55;103284.03;;;-2.95;61.78
73341;BME280;61578;52.002;5.468;2024-01-11T02:40:26;103290.09;;;-2.95;61.62
73341;BME280;61578;52.002;5.468;2024-01-11T02:40:59;103290.97;;;-2.94;61.46
73341;BME280;61578;52.002;5.468;2024-01-11T02:41:32;103268.94;;;-3.07;61.52
73341;BME280;61578;52.002;5.468;2024-01-11T02:42:03;103287.50;;;-2.95;61.50
73341;BME280;61578;52.002;5.468;2024-01-11T02:42:35;103290.97;;;-2.96;61.42
73341;BME280;61578;52.002;5.468;2024-01-11T02:43:09;103285.75;;;-2.96;61.40
73341;BME280;61578;52.002;5.468;2024-01-11T02:43:40;103283.16;;;-2.96;61.69
73341;BME280;61578;52.002;5.468;2024-01-11T02:44:11;103285.75;;;-2.96;61.31
73341;BME280;61578;52.002;5.468;2024-01-11T02:44:42;103287.50;;;-2.95;61.41
73341;BME280;61578;52.002;5.468;2024-01-11T02:45:13;103284.00;;;-2.97;61.40